sensor_id;sensor_type;location;lat;lon;timestamp;P1;durP1;ratioP1;P2;durP2;ratioP2
37907;SDS011;23740;51.550;6.846;2023-06-22T00:01:18;7.45;;;6.22;;
37907;SDS011;23740;51.550;6.846;2023-06-22T00:03:47;10.55;;;6.82;;
37907;SDS011;23740;51.550;6.846;2023-06-22T00:06:15;10.13;;;6.88;;
37907;SDS011;23740;51.550;6.846;2023-06-22T00:08:43;8.27;;;6.90;;
37907;SDS011;23740;51.550;6.846;2023-06-22T00:11:11;8.35;;;7.13;;
37907;SDS011;23740;51.550;6.846;2023-06-22T00:13:40;8.60;;;7.13;;
37907;SDS011;23740;51.550;6.846;2023-06-22T00:16:08;8.43;;;6.38;;
37907;SDS011;23740;51.550;6.846;2023-06-22T00:18:36;8.95;;;6.38;;
37907;SDS011;23740;51.550;6.846;2023-06-22T00:21:04;7.82;;;6.18;;
37907;SDS011;23740;51.550;6.846;2023-06-22T00:23:32;10.18;;;6.45;;
37907;SDS011;23740;51.550;6.846;2023-06-22T00:26:01;8.00;;;6.78;;
37907;SDS011;23740;51.550;6.846;2023-06-22T00:28:29;9.80;;;6.85;;
37907;SDS011;23740;51.550;6.846;2023-06-22T00:30:58;8.70;;;6.72;;
37907;SDS011;23740;51.550;6.846;2023-06-22T00:33:26;9.05;;;6.72;;
37907;SDS011;23740;51.550;6.846;2023-06-22T00:35:54;8.65;;;7.00;;
37907;SDS011;23740;51.550;6.846;2023-06-22T00:38:22;9.55;;;7.20;;
37907;SDS011;23740;51.550;6.846;2023-06-22T00:40:50;9.13;;;6.97;;
37907;SDS011;23740;51.550;6.846;2023-06-22T00:43:18;11.30;;;7.30;;
37907;SDS011;23740;51.550;6.846;2023-06-22T00:45:47;9.75;;;6.55;;
37907;SDS011;23740;51.550;6.846;2023-06-22T00:48:16;10.00;;;7.43;;
37907;SDS011;23740;51.550;6.846;2023-06-22T00:50:44;9.27;;;7.32;;
37907;SDS011;23740;51.550;6.846;2023-06-22T00:53:16;9.57;;;6.78;;
37907;SDS011;23740;51.550;6.846;2023-06-22T00:55:44;8.73;;;7.03;;
37907;SDS011;23740;51.550;6.846;2023-06-22T00:58:13;8.98;;;7.32;;
37907;SDS011;23740;51.550;6.846;2023-06-22T01:00:41;9.68;;;7.40;;
37907;SDS011;23740;51.550;6.846;2023-06-22T01:03:09;8.40;;;7.50;;
37907;SDS011;23740;51.550;6.846;2023-06-22T01:05:39;10.85;;;6.95;;
37907;SDS011;23740;51.550;6.846;2023-06-22T01:08:11;9.65;;;7.75;;
37907;SDS011;23740;51.550;6.846;2023-06-22T01:10:44;9.95;;;7.95;;
37907;SDS011;23740;51.550;6.846;2023-06-22T01:13:16;10.05;;;7.55;;
37907;SDS011;23740;51.550;6.846;2023-06-22T01:15:49;11.10;;;7.80;;
37907;SDS011;23740;51.550;6.846;2023-06-22T01:18:20;10.98;;;8.02;;
37907;SDS011;23740;51.550;6.846;2023-06-22T01:20:53;11.20;;;7.57;;
37907;SDS011;23740;51.550;6.846;2023-06-22T01:23:26;9.88;;;7.45;;
37907;SDS011;23740;51.550;6.846;2023-06-22T01:25:59;12.45;;;7.57;;
37907;SDS011;23740;51.550;6.846;2023-06-22T01:28:40;11.00;;;8.38;;
37907;SDS011;23740;51.550;6.846;2023-06-22T01:31:10;11.25;;;7.95;;
37907;SDS011;23740;51.550;6.846;2023-06-22T01:33:39;11.80;;;8.57;;
37907;SDS011;23740;51.550;6.846;2023-06-22T01:36:09;10.50;;;8.80;;
37907;SDS011;23740;51.550;6.846;2023-06-22T01:38:37;11.10;;;9.00;;
37907;SDS011;23740;51.550;6.846;2023-06-22T01:41:06;11.52;;;8.15;;
37907;SDS011;23740;51.550;6.846;2023-06-22T01:43:33;10.00;;;8.15;;
37907;SDS011;23740;51.550;6.846;2023-06-22T01:46:03;12.20;;;8.75;;
37907;SDS011;23740;51.550;6.846;2023-06-22T01:48:31;10.98;;;8.07;;
37907;SDS011;23740;51.550;6.846;2023-06-22T01:50:59;10.98;;;8.48;;
37907;SDS011;23740;51.550;6.846;2023-06-22T01:53:27;12.40;;;7.82;;
37907;SDS011;23740;51.550;6.846;2023-06-22T01:55:55;11.25;;;8.05;;
37907;SDS011;23740;51.550;6.846;2023-06-22T01:58:23;9.90;;;8.75;;
37907;SDS011;23740;51.550;6.846;2023-06-22T02:00:55;11.25;;;8.48;;
37907;SDS011;23740;51.550;6.846;2023-06-22T02:03:28;10.80;;;9.02;;
37907;SDS011;23740;51.550;6.846;2023-06-22T02:06:00;10.75;;;8.40;;
37907;SDS011;23740;51.550;6.846;2023-06-22T02:08:33;10.90;;;8.80;;
37907;SDS011;23740;51.550;6.846;2023-06-22T02:11:09;12.00;;;9.52;;
37907;SDS011;23740;51.550;6.846;2023-06-22T02:13:37;12.95;;;8.70;;
37907;SDS011;23740;51.550;6.846;2023-06-22T02:16:09;12.15;;;10.07;;
37907;SDS011;23740;51.550;6.846;2023-06-22T02:18:38;12.98;;;8.82;;
37907;SDS011;23740;51.550;6.846;2023-06-22T02:21:07;12.63;;;8.40;;
37907;SDS011;23740;51.550;6.846;2023-06-22T02:23:34;10.38;;;8.80;;
37907;SDS011;23740;51.550;6.846;2023-06-22T02:26:02;10.73;;;8.77;;
37907;SDS011;23740;51.550;6.846;2023-06-22T02:28:30;12.07;;;8.15;;
37907;SDS011;23740;51.550;6.846;2023-06-22T02:31:01;10.88;;;8.82;;
37907;SDS011;23740;51.550;6.846;2023-06-22T02:33:29;11.25;;;8.70;;
37907;SDS011;23740;51.550;6.846;2023-06-22T02:35:58;12.32;;;9.10;;
37907;SDS011;23740;51.550;6.846;2023-06-22T02:38:26;10.88;;;9.43;;
37907;SDS011;23740;51.550;6.846;2023-06-22T02:40:54;12.50;;;9.50;;
37907;SDS011;23740;51.550;6.846;2023-06-22T02:43:22;12.60;;;9.15;;
37907;SDS011;23740;51.550;6.846;2023-06-22T02:45:50;13.63;;;9.45;;
37907;SDS011;23740;51.550;6.846;2023-06-22T02:48:17;15.02;;;9.20;;
37907;SDS011;23740;51.550;6.846;2023-06-22T02:50:45;13.35;;;9.77;;
37907;SDS011;23740;51.550;6.846;2023-06-22T02:53:15;13.77;;;10.05;;
37907;SDS011;23740;51.550;6.846;2023-06-22T02:55:42;15.80;;;10.45;;
37907;SDS011;23740;51.550;6.846;2023-06-22T02:58:10;13.57;;;10.10;;
37907;SDS011;23740;51.550;6.846;2023-06-22T03:00:38;13.10;;;9.82;;
37907;SDS011;23740;51.550;6.846;2023-06-22T03:03:06;13.32;;;10.90;;
37907;SDS011;23740;51.550;6.846;2023-06-22T03:05:34;13.27;;;10.77;;
37907;SDS011;23740;51.550;6.846;2023-06-22T03:08:02;14.55;;;10.13;;
37907;SDS011;23740;51.550;6.846;2023-06-22T03:10:32;10.88;;;8.93;;
37907;SDS011;23740;51.550;6.846;2023-06-22T03:12:59;13.30;;;10.07;;
37907;SDS011;23740;51.550;6.846;2023-06-22T03:15:27;11.30;;;9.23;;
37907;SDS011;23740;51.550;6.846;2023-06-22T03:17:57;10.70;;;9.52;;
37907;SDS011;23740;51.550;6.846;2023-06-22T03:20:25;15.05;;;10.38;;
37907;SDS011;23740;51.550;6.846;2023-06-22T03:22:56;13.57;;;9.43;;
37907;SDS011;23740;51.550;6.846;2023-06-22T03:25:24;14.30;;;10.25;;
37907;SDS011;23740;51.550;6.846;2023-06-22T03:27:53;14.90;;;10.18;;
37907;SDS011;23740;51.550;6.846;2023-06-22T03:30:21;13.45;;;10.75;;
37907;SDS011;23740;51.550;6.846;2023-06-22T03:32:49;14.35;;;10.57;;
37907;SDS011;23740;51.550;6.846;2023-06-22T03:35:17;13.63;;;10.02;;
37907;SDS011;23740;51.550;6.846;2023-06-22T03:37:45;14.23;;;11.07;;
37907;SDS011;23740;51.550;6.846;2023-06-22T03:40:15;12.98;;;10.25;;
37907;SDS011;23740;51.550;6.846;2023-06-22T03:42:43;13.85;;;10.45;;
37907;SDS011;23740;51.550;6.846;2023-06-22T03:45:12;14.50;;;10.55;;
37907;SDS011;23740;51.550;6.846;2023-06-22T03:47:40;14.57;;;9.82;;
37907;SDS011;23740;51.550;6.846;2023-06-22T03:50:08;13.55;;;9.65;;
37907;SDS011;23740;51.550;6.846;2023-06-22T03:52:36;14.13;;;10.60;;
37907;SDS011;23740;51.550;6.846;2023-06-22T03:55:05;11.18;;;9.27;;
37907;SDS011;23740;51.550;6.846;2023-06-22T03:57:34;11.60;;;8.95;;
37907;SDS011;23740;51.550;6.846;2023-06-22T04:00:02;14.15;;;9.88;;
37907;SDS011;23740;51.550;6.846;2023-06-22T04:02:33;14.15;;;10.38;;
37907;SDS011;23740;51.550;6.846;2023-06-22T04:05:01;12.18;;;9.88;;
37907;SDS011;23740;51.550;6.846;2023-06-22T04:07:31;13.32;;;10.50;;
37907;SDS011;23740;51.550;6.846;2023-06-22T04:09:59;14.73;;;11.32;;
37907;SDS011;23740;51.550;6.846;2023-06-22T04:12:26;12.05;;;9.55;;
37907;SDS011;23740;51.550;6.846;2023-06-22T04:14:54;12.77;;;10.57;;
37907;SDS011;23740;51.550;6.846;2023-06-22T04:17:25;15.05;;;10.95;;
37907;SDS011;23740;51.550;6.846;2023-06-22T04:19:54;15.77;;;10.43;;
37907;SDS011;23740;51.550;6.846;2023-06-22T04:22:22;13.30;;;10.52;;
37907;SDS011;23740;51.550;6.846;2023-06-22T04:24:50;14.63;;;10.60;;
37907;SDS011;23740;51.550;6.846;2023-06-22T04:27:18;14.85;;;10.65;;
37907;SDS011;23740;51.550;6.846;2023-06-22T04:29:46;15.63;;;11.40;;
37907;SDS011;23740;51.550;6.846;2023-06-22T04:32:15;10.57;;;9.35;;
37907;SDS011;23740;51.550;6.846;2023-06-22T04:34:43;13.57;;;10.50;;
37907;SDS011;23740;51.550;6.846;2023-06-22T04:37:13;13.38;;;11.02;;
37907;SDS011;23740;51.550;6.846;2023-06-22T04:39:42;14.30;;;11.10;;
37907;SDS011;23740;51.550;6.846;2023-06-22T04:42:11;17.75;;;11.48;;
37907;SDS011;23740;51.550;6.846;2023-06-22T04:44:39;13.20;;;10.80;;
37907;SDS011;23740;51.550;6.846;2023-06-22T04:47:08;13.18;;;10.30;;
37907;SDS011;23740;51.550;6.846;2023-06-22T04:49:35;13.73;;;11.25;;
37907;SDS011;23740;51.550;6.846;2023-06-22T04:52:04;14.98;;;11.93;;
37907;SDS011;23740;51.550;6.846;2023-06-22T04:54:36;14.77;;;11.55;;
37907;SDS011;23740;51.550;6.846;2023-06-22T04:57:06;15.75;;;11.27;;
37907;SDS011;23740;51.550;6.846;2023-06-22T04:59:37;14.60;;;11.13;;
37907;SDS011;23740;51.550;6.846;2023-06-22T05:02:08;13.80;;;10.93;;
37907;SDS011;23740;51.550;6.846;2023-06-22T05:04:36;14.40;;;11.40;;
37907;SDS011;23740;51.550;6.846;2023-06-22T05:07:05;13.52;;;11.07;;
37907;SDS011;23740;51.550;6.846;2023-06-22T05:09:33;14.30;;;11.15;;
37907;SDS011;23740;51.550;6.846;2023-06-22T05:12:03;15.40;;;11.75;;
37907;SDS011;23740;51.550;6.846;2023-06-22T05:14:35;14.25;;;10.60;;
37907;SDS011;23740;51.550;6.846;2023-06-22T05:17:03;13.07;;;11.60;;
37907;SDS011;23740;51.550;6.846;2023-06-22T05:19:41;15.25;;;11.93;;
37907;SDS011;23740;51.550;6.846;2023-06-22T05:22:11;17.23;;;12.20;;
37907;SDS011;23740;51.550;6.846;2023-06-22T05:24:39;14.32;;;11.23;;
37907;SDS011;23740;51.550;6.846;2023-06-22T05:27:09;15.18;;;10.65;;
37907;SDS011;23740;51.550;6.846;2023-06-22T05:29:37;13.45;;;10.82;;
37907;SDS011;23740;51.550;6.846;2023-06-22T05:32:05;12.98;;;10.82;;
37907;SDS011;23740;51.550;6.846;2023-06-22T05:34:33;15.93;;;11.52;;
37907;SDS011;23740;51.550;6.846;2023-06-22T05:37:01;13.10;;;11.35;;
37907;SDS011;23740;51.550;6.846;2023-06-22T05:39:29;15.45;;;11.00;;
37907;SDS011;23740;51.550;6.846;2023-06-22T05:41:57;14.10;;;10.80;;
37907;SDS011;23740;51.550;6.846;2023-06-22T05:44:26;13.98;;;11.07;;
37907;SDS011;23740;51.550;6.846;2023-06-22T05:46:54;16.30;;;11.00;;
37907;SDS011;23740;51.550;6.846;2023-06-22T05:49:22;16.15;;;11.85;;
37907;SDS011;23740;51.550;6.846;2023-06-22T05:51:50;15.13;;;11.25;;
37907;SDS011;23740;51.550;6.846;2023-06-22T05:54:18;14.00;;;10.55;;
37907;SDS011;23740;51.550;6.846;2023-06-22T05:56:46;14.68;;;10.90;;
37907;SDS011;23740;51.550;6.846;2023-06-22T05:59:14;14.40;;;10.98;;
37907;SDS011;23740;51.550;6.846;2023-06-22T06:01:43;13.52;;;11.25;;
37907;SDS011;23740;51.550;6.846;2023-06-22T06:04:11;14.35;;;11.45;;
37907;SDS011;23740;51.550;6.846;2023-06-22T06:06:39;13.43;;;10.55;;
37907;SDS011;23740;51.550;6.846;2023-06-22T06:09:09;16.05;;;11.25;;
37907;SDS011;23740;51.550;6.846;2023-06-22T06:11:38;14.20;;;10.82;;
37907;SDS011;23740;51.550;6.846;2023-06-22T06:14:06;14.40;;;10.88;;
37907;SDS011;23740;51.550;6.846;2023-06-22T06:16:34;14.20;;;11.15;;
37907;SDS011;23740;51.550;6.846;2023-06-22T06:19:03;13.05;;;10.73;;
37907;SDS011;23740;51.550;6.846;2023-06-22T06:21:31;14.32;;;10.35;;
37907;SDS011;23740;51.550;6.846;2023-06-22T06:23:59;14.30;;;10.98;;
37907;SDS011;23740;51.550;6.846;2023-06-22T06:26:27;13.25;;;11.02;;
37907;SDS011;23740;51.550;6.846;2023-06-22T06:28:56;13.43;;;10.27;;
37907;SDS011;23740;51.550;6.846;2023-06-22T06:31:25;12.80;;;10.63;;
37907;SDS011;23740;51.550;6.846;2023-06-22T06:33:54;13.93;;;12.00;;
37907;SDS011;23740;51.550;6.846;2023-06-22T06:36:23;13.65;;;11.20;;
37907;SDS011;23740;51.550;6.846;2023-06-22T06:38:51;14.48;;;11.77;;
37907;SDS011;23740;51.550;6.846;2023-06-22T06:41:19;14.88;;;12.23;;
37907;SDS011;23740;51.550;6.846;2023-06-22T06:43:47;14.75;;;12.15;;
37907;SDS011;23740;51.550;6.846;2023-06-22T06:46:15;15.65;;;11.20;;
37907;SDS011;23740;51.550;6.846;2023-06-22T06:48:43;14.80;;;10.73;;
37907;SDS011;23740;51.550;6.846;2023-06-22T06:51:10;14.75;;;12.30;;
37907;SDS011;23740;51.550;6.846;2023-06-22T06:53:40;14.65;;;11.30;;
37907;SDS011;23740;51.550;6.846;2023-06-22T06:56:07;14.52;;;11.02;;
37907;SDS011;23740;51.550;6.846;2023-06-22T06:58:37;13.88;;;11.88;;
37907;SDS011;23740;51.550;6.846;2023-06-22T07:01:06;14.20;;;10.90;;
37907;SDS011;23740;51.550;6.846;2023-06-22T07:03:34;17.33;;;12.88;;
37907;SDS011;23740;51.550;6.846;2023-06-22T07:06:02;14.57;;;11.50;;
37907;SDS011;23740;51.550;6.846;2023-06-22T07:08:30;15.18;;;12.23;;
37907;SDS011;23740;51.550;6.846;2023-06-22T07:10:59;14.23;;;11.70;;
37907;SDS011;23740;51.550;6.846;2023-06-22T07:13:27;14.75;;;11.93;;
37907;SDS011;23740;51.550;6.846;2023-06-22T07:15:55;14.80;;;11.20;;
37907;SDS011;23740;51.550;6.846;2023-06-22T07:18:23;15.48;;;12.15;;
37907;SDS011;23740;51.550;6.846;2023-06-22T07:20:52;16.33;;;12.05;;
37907;SDS011;23740;51.550;6.846;2023-06-22T07:23:20;16.65;;;12.50;;
37907;SDS011;23740;51.550;6.846;2023-06-22T07:25:48;15.50;;;12.63;;
37907;SDS011;23740;51.550;6.846;2023-06-22T07:28:17;14.07;;;11.35;;
37907;SDS011;23740;51.550;6.846;2023-06-22T07:30:45;16.38;;;12.23;;
37907;SDS011;23740;51.550;6.846;2023-06-22T07:33:13;13.82;;;11.20;;
37907;SDS011;23740;51.550;6.846;2023-06-22T07:35:41;15.98;;;13.85;;
37907;SDS011;23740;51.550;6.846;2023-06-22T07:38:10;18.52;;;13.75;;
37907;SDS011;23740;51.550;6.846;2023-06-22T07:40:38;16.08;;;12.88;;
37907;SDS011;23740;51.550;6.846;2023-06-22T07:43:07;16.58;;;13.40;;
37907;SDS011;23740;51.550;6.846;2023-06-22T07:45:37;22.00;;;14.65;;
37907;SDS011;23740;51.550;6.846;2023-06-22T07:48:06;18.00;;;13.57;;
37907;SDS011;23740;51.550;6.846;2023-06-22T07:50:34;16.05;;;12.77;;
37907;SDS011;23740;51.550;6.846;2023-06-22T07:53:04;18.55;;;13.38;;
37907;SDS011;23740;51.550;6.846;2023-06-22T07:55:32;17.55;;;13.13;;
37907;SDS011;23740;51.550;6.846;2023-06-22T07:58:00;17.30;;;13.88;;
37907;SDS011;23740;51.550;6.846;2023-06-22T08:00:28;18.15;;;12.98;;
37907;SDS011;23740;51.550;6.846;2023-06-22T08:02:57;18.00;;;13.60;;
37907;SDS011;23740;51.550;6.846;2023-06-22T08:05:25;16.23;;;13.15;;
37907;SDS011;23740;51.550;6.846;2023-06-22T08:07:54;17.15;;;13.05;;
37907;SDS011;23740;51.550;6.846;2023-06-22T08:10:22;17.02;;;12.52;;
37907;SDS011;23740;51.550;6.846;2023-06-22T08:12:50;17.98;;;14.23;;
37907;SDS011;23740;51.550;6.846;2023-06-22T08:15:19;13.80;;;11.00;;
37907;SDS011;23740;51.550;6.846;2023-06-22T08:17:48;14.45;;;11.65;;
37907;SDS011;23740;51.550;6.846;2023-06-22T08:20:17;15.73;;;12.82;;
37907;SDS011;23740;51.550;6.846;2023-06-22T08:22:45;16.27;;;13.20;;
37907;SDS011;23740;51.550;6.846;2023-06-22T08:25:13;15.65;;;11.82;;
37907;SDS011;23740;51.550;6.846;2023-06-22T08:27:44;16.77;;;12.75;;
37907;SDS011;23740;51.550;6.846;2023-06-22T08:30:13;16.13;;;11.88;;
37907;SDS011;23740;51.550;6.846;2023-06-22T08:32:42;18.33;;;13.55;;
37907;SDS011;23740;51.550;6.846;2023-06-22T08:35:10;16.00;;;12.80;;
37907;SDS011;23740;51.550;6.846;2023-06-22T08:37:39;16.27;;;13.05;;
37907;SDS011;23740;51.550;6.846;2023-06-22T08:40:07;16.45;;;13.52;;
37907;SDS011;23740;51.550;6.846;2023-06-22T08:42:38;13.35;;;8.35;;
37907;SDS011;23740;51.550;6.846;2023-06-22T08:45:08;15.82;;;13.13;;
37907;SDS011;23740;51.550;6.846;2023-06-22T08:47:37;16.63;;;13.48;;
37907;SDS011;23740;51.550;6.846;2023-06-22T08:50:08;16.25;;;11.68;;
37907;SDS011;23740;51.550;6.846;2023-06-22T08:52:36;17.17;;;12.60;;
37907;SDS011;23740;51.550;6.846;2023-06-22T08:55:07;17.15;;;12.45;;
37907;SDS011;23740;51.550;6.846;2023-06-22T08:57:36;16.27;;;12.30;;
37907;SDS011;23740;51.550;6.846;2023-06-22T09:00:08;17.85;;;12.73;;
37907;SDS011;23740;51.550;6.846;2023-06-22T09:02:44;17.05;;;12.73;;
37907;SDS011;23740;51.550;6.846;2023-06-22T09:05:14;11.55;;;9.10;;
37907;SDS011;23740;51.550;6.846;2023-06-22T09:07:44;16.08;;;12.02;;
37907;SDS011;23740;51.550;6.846;2023-06-22T09:10:14;20.27;;;14.45;;
37907;SDS011;23740;51.550;6.846;2023-06-22T09:12:41;18.60;;;13.82;;
37907;SDS011;23740;51.550;6.846;2023-06-22T09:15:10;16.88;;;11.95;;
37907;SDS011;23740;51.550;6.846;2023-06-22T09:17:42;13.48;;;11.07;;
37907;SDS011;23740;51.550;6.846;2023-06-22T09:20:10;15.90;;;12.90;;
37907;SDS011;23740;51.550;6.846;2023-06-22T09:22:41;17.42;;;13.65;;
37907;SDS011;23740;51.550;6.846;2023-06-22T09:25:09;18.08;;;13.23;;
37907;SDS011;23740;51.550;6.846;2023-06-22T09:27:38;16.40;;;12.60;;
37907;SDS011;23740;51.550;6.846;2023-06-22T09:30:07;18.00;;;12.77;;
37907;SDS011;23740;51.550;6.846;2023-06-22T09:32:35;16.45;;;13.05;;
37907;SDS011;23740;51.550;6.846;2023-06-22T09:35:04;17.65;;;13.57;;
37907;SDS011;23740;51.550;6.846;2023-06-22T09:37:33;15.68;;;13.57;;
37907;SDS011;23740;51.550;6.846;2023-06-22T09:40:01;18.92;;;13.40;;
37907;SDS011;23740;51.550;6.846;2023-06-22T09:42:33;15.10;;;12.73;;
37907;SDS011;23740;51.550;6.846;2023-06-22T09:45:03;17.27;;;12.80;;
37907;SDS011;23740;51.550;6.846;2023-06-22T09:47:31;17.77;;;13.70;;
37907;SDS011;23740;51.550;6.846;2023-06-22T09:49:59;17.23;;;14.88;;
37907;SDS011;23740;51.550;6.846;2023-06-22T09:52:27;19.38;;;13.20;;
37907;SDS011;23740;51.550;6.846;2023-06-22T09:55:12;17.17;;;14.10;;
37907;SDS011;23740;51.550;6.846;2023-06-22T09:57:41;15.93;;;13.52;;
37907;SDS011;23740;51.550;6.846;2023-06-22T10:00:11;15.98;;;14.27;;
37907;SDS011;23740;51.550;6.846;2023-06-22T10:02:41;17.08;;;13.90;;
37907;SDS011;23740;51.550;6.846;2023-06-22T10:05:12;17.48;;;13.63;;
37907;SDS011;23740;51.550;6.846;2023-06-22T10:07:40;19.40;;;14.32;;
37907;SDS011;23740;51.550;6.846;2023-06-22T10:10:11;18.10;;;14.35;;
37907;SDS011;23740;51.550;6.846;2023-06-22T10:12:41;17.45;;;13.38;;
37907;SDS011;23740;51.550;6.846;2023-06-22T10:15:11;15.10;;;12.25;;
37907;SDS011;23740;51.550;6.846;2023-06-22T10:17:39;15.27;;;12.82;;
37907;SDS011;23740;51.550;6.846;2023-06-22T10:20:10;16.38;;;13.95;;
37907;SDS011;23740;51.550;6.846;2023-06-22T10:22:39;15.30;;;13.23;;
37907;SDS011;23740;51.550;6.846;2023-06-22T10:25:07;15.32;;;13.05;;
37907;SDS011;23740;51.550;6.846;2023-06-22T10:27:36;14.93;;;13.40;;
37907;SDS011;23740;51.550;6.846;2023-06-22T10:30:06;15.30;;;13.45;;
37907;SDS011;23740;51.550;6.846;2023-06-22T10:32:37;14.40;;;12.70;;
37907;SDS011;23740;51.550;6.846;2023-06-22T10:35:09;13.45;;;11.77;;
37907;SDS011;23740;51.550;6.846;2023-06-22T10:37:39;13.50;;;11.85;;
37907;SDS011;23740;51.550;6.846;2023-06-22T10:40:09;14.20;;;12.23;;
37907;SDS011;23740;51.550;6.846;2023-06-22T10:42:38;13.20;;;11.90;;
37907;SDS011;23740;51.550;6.846;2023-06-22T10:45:07;12.45;;;11.15;;
37907;SDS011;23740;51.550;6.846;2023-06-22T10:47:36;13.10;;;11.02;;
37907;SDS011;23740;51.550;6.846;2023-06-22T10:50:05;12.88;;;11.55;;
37907;SDS011;23740;51.550;6.846;2023-06-22T10:52:34;13.55;;;12.13;;
37907;SDS011;23740;51.550;6.846;2023-06-22T10:55:02;12.77;;;11.45;;
37907;SDS011;23740;51.550;6.846;2023-06-22T10:57:30;12.23;;;10.60;;
37907;SDS011;23740;51.550;6.846;2023-06-22T11:00:00;12.05;;;10.80;;
37907;SDS011;23740;51.550;6.846;2023-06-22T11:02:30;10.88;;;9.77;;
37907;SDS011;23740;51.550;6.846;2023-06-22T11:05:00;11.43;;;10.13;;
37907;SDS011;23740;51.550;6.846;2023-06-22T11:07:28;12.63;;;11.32;;
37907;SDS011;23740;51.550;6.846;2023-06-22T11:09:56;15.10;;;11.63;;
37907;SDS011;23740;51.550;6.846;2023-06-22T11:12:24;12.65;;;10.35;;
37907;SDS011;23740;51.550;6.846;2023-06-22T11:14:52;10.98;;;9.88;;
37907;SDS011;23740;51.550;6.846;2023-06-22T11:17:20;10.80;;;9.80;;
37907;SDS011;23740;51.550;6.846;2023-06-22T11:19:47;11.45;;;10.25;;
37907;SDS011;23740;51.550;6.846;2023-06-22T11:22:17;11.30;;;10.20;;
37907;SDS011;23740;51.550;6.846;2023-06-22T11:24:44;10.35;;;9.27;;
37907;SDS011;23740;51.550;6.846;2023-06-22T11:27:12;10.02;;;9.02;;
37907;SDS011;23740;51.550;6.846;2023-06-22T11:29:40;9.88;;;8.18;;
37907;SDS011;23740;51.550;6.846;2023-06-22T11:32:09;9.50;;;8.45;;
37907;SDS011;23740;51.550;6.846;2023-06-22T11:34:40;9.57;;;8.57;;
37907;SDS011;23740;51.550;6.846;2023-06-22T11:37:08;9.95;;;8.80;;
37907;SDS011;23740;51.550;6.846;2023-06-22T11:39:37;11.38;;;9.40;;
37907;SDS011;23740;51.550;6.846;2023-06-22T11:42:13;8.60;;;7.80;;
37907;SDS011;23740;51.550;6.846;2023-06-22T11:44:41;10.60;;;9.45;;
37907;SDS011;23740;51.550;6.846;2023-06-22T11:47:09;10.00;;;8.70;;
37907;SDS011;23740;51.550;6.846;2023-06-22T11:49:37;10.52;;;9.45;;
37907;SDS011;23740;51.550;6.846;2023-06-22T11:52:06;13.25;;;10.50;;
37907;SDS011;23740;51.550;6.846;2023-06-22T11:54:34;11.18;;;9.95;;
37907;SDS011;23740;51.550;6.846;2023-06-22T11:57:03;11.80;;;10.60;;
37907;SDS011;23740;51.550;6.846;2023-06-22T11:59:31;12.95;;;10.13;;
37907;SDS011;23740;51.550;6.846;2023-06-22T12:01:59;13.00;;;10.88;;
37907;SDS011;23740;51.550;6.846;2023-06-22T12:04:27;13.93;;;11.05;;
37907;SDS011;23740;51.550;6.846;2023-06-22T12:06:55;12.93;;;10.80;;
37907;SDS011;23740;51.550;6.846;2023-06-22T12:09:23;13.40;;;10.45;;
37907;SDS011;23740;51.550;6.846;2023-06-22T12:11:50;13.75;;;10.27;;
37907;SDS011;23740;51.550;6.846;2023-06-22T12:14:19;15.60;;;12.45;;
37907;SDS011;23740;51.550;6.846;2023-06-22T12:16:47;14.25;;;11.52;;
37907;SDS011;23740;51.550;6.846;2023-06-22T12:19:15;15.25;;;11.85;;
37907;SDS011;23740;51.550;6.846;2023-06-22T12:21:43;15.90;;;10.98;;
37907;SDS011;23740;51.550;6.846;2023-06-22T12:24:12;17.27;;;11.60;;
37907;SDS011;23740;51.550;6.846;2023-06-22T12:26:40;18.42;;;11.77;;
37907;SDS011;23740;51.550;6.846;2023-06-22T12:29:08;18.13;;;12.90;;
37907;SDS011;23740;51.550;6.846;2023-06-22T12:31:37;17.88;;;13.50;;
37907;SDS011;23740;51.550;6.846;2023-06-22T12:34:06;18.45;;;12.13;;
37907;SDS011;23740;51.550;6.846;2023-06-22T12:36:34;20.23;;;14.18;;
37907;SDS011;23740;51.550;6.846;2023-06-22T12:39:01;24.35;;;15.15;;
37907;SDS011;23740;51.550;6.846;2023-06-22T12:41:29;19.40;;;14.40;;
37907;SDS011;23740;51.550;6.846;2023-06-22T12:43:57;18.77;;;13.32;;
37907;SDS011;23740;51.550;6.846;2023-06-22T12:46:25;17.00;;;14.60;;
37907;SDS011;23740;51.550;6.846;2023-06-22T12:48:54;13.27;;;10.55;;
37907;SDS011;23740;51.550;6.846;2023-06-22T12:51:22;12.20;;;10.00;;
37907;SDS011;23740;51.550;6.846;2023-06-22T12:53:50;16.42;;;12.02;;
37907;SDS011;23740;51.550;6.846;2023-06-22T12:56:18;19.65;;;15.60;;
37907;SDS011;23740;51.550;6.846;2023-06-22T12:58:46;12.63;;;10.27;;
37907;SDS011;23740;51.550;6.846;2023-06-22T13:01:14;12.27;;;10.05;;
37907;SDS011;23740;51.550;6.846;2023-06-22T13:03:41;18.95;;;14.82;;
37907;SDS011;23740;51.550;6.846;2023-06-22T13:06:11;19.73;;;14.73;;
37907;SDS011;23740;51.550;6.846;2023-06-22T13:08:39;17.35;;;12.90;;
37907;SDS011;23740;51.550;6.846;2023-06-22T13:11:26;17.63;;;13.27;;
37907;SDS011;23740;51.550;6.846;2023-06-22T13:13:54;18.73;;;14.00;;
37907;SDS011;23740;51.550;6.846;2023-06-22T13:16:22;18.10;;;13.38;;
37907;SDS011;23740;51.550;6.846;2023-06-22T13:18:50;18.10;;;12.05;;
37907;SDS011;23740;51.550;6.846;2023-06-22T13:21:19;19.92;;;15.00;;
37907;SDS011;23740;51.550;6.846;2023-06-22T13:23:47;16.42;;;12.52;;
37907;SDS011;23740;51.550;6.846;2023-06-22T13:26:14;16.30;;;12.20;;
37907;SDS011;23740;51.550;6.846;2023-06-22T13:28:42;17.52;;;14.13;;
37907;SDS011;23740;51.550;6.846;2023-06-22T13:31:10;18.95;;;14.75;;
37907;SDS011;23740;51.550;6.846;2023-06-22T13:33:38;20.80;;;16.10;;
37907;SDS011;23740;51.550;6.846;2023-06-22T13:36:07;19.67;;;13.52;;
37907;SDS011;23740;51.550;6.846;2023-06-22T13:38:36;23.30;;;14.52;;
37907;SDS011;23740;51.550;6.846;2023-06-22T13:41:05;19.30;;;15.20;;
37907;SDS011;23740;51.550;6.846;2023-06-22T13:43:33;20.08;;;15.60;;
37907;SDS011;23740;51.550;6.846;2023-06-22T13:46:01;19.30;;;13.77;;
37907;SDS011;23740;51.550;6.846;2023-06-22T13:48:28;17.15;;;11.55;;
37907;SDS011;23740;51.550;6.846;2023-06-22T13:50:56;20.35;;;15.00;;
37907;SDS011;23740;51.550;6.846;2023-06-22T13:53:25;23.05;;;15.38;;
37907;SDS011;23740;51.550;6.846;2023-06-22T13:55:54;18.08;;;12.93;;
37907;SDS011;23740;51.550;6.846;2023-06-22T13:58:23;20.75;;;15.77;;
37907;SDS011;23740;51.550;6.846;2023-06-22T14:00:55;20.60;;;15.55;;
37907;SDS011;23740;51.550;6.846;2023-06-22T14:03:23;15.73;;;11.88;;
37907;SDS011;23740;51.550;6.846;2023-06-22T14:05:51;13.77;;;10.15;;
37907;SDS011;23740;51.550;6.846;2023-06-22T14:08:20;16.45;;;12.10;;
37907;SDS011;23740;51.550;6.846;2023-06-22T14:11:08;17.23;;;13.70;;
37907;SDS011;23740;51.550;6.846;2023-06-22T14:13:36;17.20;;;13.43;;
37907;SDS011;23740;51.550;6.846;2023-06-22T14:16:04;21.23;;;14.45;;
37907;SDS011;23740;51.550;6.846;2023-06-22T14:18:32;17.15;;;12.52;;
37907;SDS011;23740;51.550;6.846;2023-06-22T14:21:00;22.55;;;16.55;;
37907;SDS011;23740;51.550;6.846;2023-06-22T14:23:28;17.83;;;13.00;;
37907;SDS011;23740;51.550;6.846;2023-06-22T14:25:56;20.05;;;14.15;;
37907;SDS011;23740;51.550;6.846;2023-06-22T14:28:25;18.75;;;14.90;;
37907;SDS011;23740;51.550;6.846;2023-06-22T14:30:53;18.02;;;13.60;;
37907;SDS011;23740;51.550;6.846;2023-06-22T14:33:21;19.23;;;15.23;;
37907;SDS011;23740;51.550;6.846;2023-06-22T14:35:49;20.95;;;14.77;;